AirNav   Pilot Hours Calculator
 
 1564 users online  

KBUM Butler Memorial Airport
Butler, Missouri, USA

GOING TO BUTLER?


FAA INFORMATION EFFECTIVE 16 JUNE 2022

Location

FAA Identifier: BUM
Lat/Long: 38-17-23.1620N 094-20-24.4600W
38-17.386033N 094-20.407667W
38.2897672,-94.3401278
(estimated)
Elevation: 893.7 ft. / 272.4 m (surveyed)
Variation: 04E (1995)
From city: 2 miles N of BUTLER, MO
Time zone: UTC -5 (UTC -6 during Standard Time)
Zip code: 64730

Airport Operations

Airport use: Open to the public
Activation date: 11/1946
Control tower: no
ARTCC: KANSAS CITY CENTER
FSS: COLUMBIA FLIGHT SERVICE STATION
NOTAMs facility: COU (NOTAM-D service available)
Attendance: CONTINUOUS
Wind indicator: lighted
Segmented circle: no
Lights: SS-SR
Beacon: ARPT BCN PERMLY OTS.

Airport Communications

CTAF: 122.9
WX AWOS-3PT at LRY (19 nm N): 119.975 (816-380-5936)
  • APCH/DEP SVC PRVDD BY KANSAS CITY ARTCC ON FREQS 125.55/327.0 (BUTLER RCAG).

Airport Services

Fuel available: 100LL
Parking: tiedowns
Airframe service: MINOR
Powerplant service: MINOR
Bottled oxygen: NONE
Bulk oxygen: NONE

Runway Information

Runway 18/36

Dimensions: 3999 x 75 ft. / 1219 x 23 m
Surface: asphalt/rubberized friction seal coat, in good condition
Weight bearing capacity: 
Single wheel: 12.0
Runway edge lights: medium intensity
RUNWAY 18  RUNWAY 36
Latitude: 38-17.715275N38-17.056797N
Longitude: 094-20.393767W094-20.421572W
Elevation: 870.6 ft.892.7 ft.
Traffic pattern: leftleft
Runway heading: 178 magnetic, 182 true358 magnetic, 002 true
Markings: nonprecision, in good conditionnonprecision, in good condition
Touchdown point: yes, no lightsyes, no lights

Airport Ownership and Management from official FAA records

Ownership: Publicly-owned
Owner: CITY OF BUTLER
PO BOX 420
BUTLER, MO 64730
Phone 660-679-4182
Manager: CHRIS HALL
1413 N. ORANGE
BUTLER, MO 64730
Phone 816-529-5867

Airport Operational Statistics

Aircraft based on the field: 20
Single engine airplanes: 19
Multi engine airplanes: 1
    
Aircraft operations: avg 133/week *
50% transient general aviation
46% local general aviation
3% air taxi
<1% military
* for 12-month period ending 31 December 2019

Additional Remarks

ULTRALIGHTS ON & INVOF ARPT.
TWO TWRS +195 FT & +411 FT; APRXLY 7000 FT & 14000 FT S OF RY 36 THLD.
FOR CD IF UNA TO CTC ON FSS FREQ, CTC KANSAS CITY ARTCC AT 913-254-8508.

Instrument Procedures

NOTE: All procedures below are presented as PDF files. If you need a reader for these files, you should download the free Adobe Reader.

NOT FOR NAVIGATION. Please procure official charts for flight.
FAA instrument procedures published for use from 16 June 2022 at 0901Z to 14 July 2022 at 0900z.

 
IAPs - Instrument Approach Procedures
RNAV (GPS) RWY 18   download (196KB)
RNAV (GPS) RWY 36   download (203KB)
VOR-A   download (168KB)
NOTE: Special Take-Off Minimums/Departure Procedures apply   download (421KB)

Other nearby airports with instrument procedures:

KLRY - Lawrence Smith Memorial Airport (19 nm N)
KNVD - Nevada Municipal Airport (26 nm S)
K81 - Miami County Airport (31 nm NW)
KGLY - Clinton Regional Airport (31 nm E)
KFSK - Fort Scott Municipal Airport (36 nm SW)
 
Loc | Ops | Rwys | IFR | FBO | Links
Com | Nav | Svcs | Stats | Notes
Area around KBUM (Butler Memorial Airport)
 
Road maps at: MapQuest Bing Google
 
Aerial photo
WARNING: Photo may not be current or correct
Aerial photo of KBUM (Butler Memorial Airport)
Do you have a better or more recent aerial photo of Butler Memorial Airport that you would like to share? If so, please send us your photo.

 
Sectional chart

 
Airport distance calculator
Flying to Butler Memorial Airport? Find the distance to fly.

From to KBUM

Sunrise and sunset
Times for 28-Jun-2022
 Local
(UTC-5)
 Zulu
(UTC)
Morning civil twilight05:2610:26
Sunrise05:5710:57
Sunset20:4401:44
Evening civil twilight21:1602:16

Current date and time
Zulu (UTC)  28-Jun-2022 19:43:01
Local (UTC-5)  28-Jun-2022 14:43:01
 
METAR
KLRY 
19nm N 
281915Z AUTO 17005KT 10SM CLR 30/10 A3025 RMK AO2
KGLY 
31nm E 
281915Z AUTO VRB04KT 10SM CLR 27/13 A3023 RMK AO2
KGVW 
34nm N 
281900Z AUTO 07009KT 10SM CLR 28/23 A3008 RMK A01
KFSK 
36nm SW 
280955Z AUTO 00000KT 10SM CLR 18/17 A3026 RMK AO2 T01820170
KOJC 
38nm NW 
281853Z 22005KT 10SM CLR 29/11 A3023 RMK AO2 SLP225 T02890106
TAF
KIXD 
41nm NW 
281120Z 2812/2912 18007KT P6SM FEW250
KSZL 
46nm NE 
281100Z 2811/2917 18006KT 9999 SCT200 QNH3021INS BECMG 2813/2814 19006KT 9999 SKC QNH3009INS TX28/2820Z TN17/2910Z
NOTAMs
Click for the latest NOTAMs
NOTAMs are issued by the DoD/FAA and will open in a separate window not controlled by AirNav.

 

 
 

FBO, Fuel Providers, and Aircraft Ground Support

  
 Business Name 
 
 Contact 
 
 Services / Description 
 
Fuel Prices
 
Comments
  
Skydive Kansas City 816-529-5867
no information available

If you are affiliated with Skydive Kansas City and would like to show here your services, contact info, web link, logo, and more, click here
100LL
SS $6.85 
 Updated 16-Jun-2022
 
   1 read write
SS=Self service
Update Fuel Prices
 

Would you like to see your business listed on this page?

 If your business provides an interesting product or service to pilots, flight crews, aircraft, or users of the Butler Memorial Airport, you should consider listing it here.  To start the listing process, click on the button below
 
Add a business
 

Other Pages about Butler Memorial Airport

Update a link
 
Copyright © AirNav, LLC. All rights reserved. Privacy Policy  Contact